Terminal Aerodrome Forecast
Issued by NWS

Home | Current Version | Previous Version | Text Only | Print | Product List | Glossary On
Versions: 1 2 3 4 5 6 7 8 9 10 11 12 13 14 15 16 17 18 19 20 21 22 23 24 25 26 27
000
FTUS45 KBOU 220157 AAB
TAFAPA
TAF AMD
KAPA 220157Z 2202/2224 21012KT P6SM SCT140 BKN200
     FM220600 25014G21KT P6SM SCT220
     FM221200 25012KT P6SM SCT220
     FM221700 28015G22KT P6SM SCT220=

USA.gov is the U.S. government's official web portal to all federal, state and local government web resources and services.